createdAt,value
2018-01-15T00:02:46.758Z,-1.47
2018-01-15T00:05:56.583Z,-1.53
2018-01-15T00:09:06.576Z,-1.51
2018-01-15T00:12:17.529Z,-1.59
2018-01-15T00:15:28.560Z,-1.65
2018-01-15T00:18:41.359Z,-1.59
2018-01-15T00:21:56.400Z,-1.58
2018-01-15T00:25:08.705Z,-1.62
2018-01-15T00:28:20.286Z,-1.60
2018-01-15T00:31:47.170Z,-1.70
2018-01-15T00:34:58.425Z,-1.66
2018-01-15T00:38:10.655Z,-1.60
2018-01-15T00:41:22.513Z,-1.59
2018-01-15T00:44:33.849Z,-1.58
2018-01-15T00:47:43.343Z,-1.69
2018-01-15T00:50:54.320Z,-1.64
2018-01-15T00:54:06.528Z,-1.71
2018-01-15T00:57:16.523Z,-1.66
2018-01-15T01:00:26.589Z,-1.81
2018-01-15T01:03:39.809Z,-1.73
2018-01-15T01:06:49.840Z,-1.72
2018-01-15T01:09:59.480Z,-1.78
2018-01-15T01:13:25.455Z,-1.64
2018-01-15T01:16:34.097Z,-1.62
2018-01-15T01:19:44.770Z,-1.72
2018-01-15T01:22:57.289Z,-1.81
2018-01-15T01:26:08.248Z,-1.71
2018-01-15T01:29:33.014Z,-1.71
2018-01-15T01:32:46.832Z,-1.69
2018-01-15T01:35:59.590Z,-1.77
2018-01-15T01:39:24.499Z,-1.70
2018-01-15T01:42:35.554Z,-1.81
2018-01-15T01:45:47.428Z,-1.76
2018-01-15T01:49:02.574Z,-1.77
2018-01-15T01:52:13.678Z,-1.66
2018-01-15T01:55:24.718Z,-1.68
2018-01-15T01:58:34.565Z,-1.62
2018-01-15T02:01:45.655Z,-1.74
2018-01-15T02:04:59.273Z,-1.78
2018-01-15T02:08:13.813Z,-1.92
2018-01-15T02:11:24.240Z,-1.81
2018-01-15T02:14:35.513Z,-1.84
2018-01-15T02:17:52.571Z,-1.83
2018-01-15T02:21:06.013Z,-1.93
2018-01-15T02:24:18.663Z,-1.84
2018-01-15T02:27:30.373Z,-1.88
2018-01-15T02:30:45.391Z,-1.90
2018-01-15T02:33:58.317Z,-1.85
2018-01-15T02:37:10.235Z,-1.91
2018-01-15T02:40:25.058Z,-1.89
2018-01-15T02:43:39.031Z,-1.96
2018-01-15T02:46:52.478Z,-1.94
2018-01-15T02:50:08.383Z,-1.90
2018-01-15T02:53:19.646Z,-1.98
2018-01-15T02:56:29.758Z,-1.94
2018-01-15T02:59:42.785Z,-1.92
2018-01-15T03:02:54.676Z,-1.92
2018-01-15T03:06:11.622Z,-1.97
2018-01-15T03:09:24.538Z,-2.06
2018-01-15T03:12:39.644Z,-2.00
2018-01-15T03:16:04.013Z,-1.88
2018-01-15T03:19:14.936Z,-1.95
2018-01-15T03:22:25.641Z,-1.96
2018-01-15T03:25:35.518Z,-1.80
2018-01-15T03:28:48.586Z,-1.94
2018-01-15T03:32:00.785Z,-1.97
2018-01-15T03:35:13.051Z,-2.01
2018-01-15T03:38:26.604Z,-1.96
2018-01-15T03:41:41.821Z,-1.98
2018-01-15T03:44:52.542Z,-1.98
2018-01-15T03:48:04.465Z,-1.90
2018-01-15T03:51:15.115Z,-2.01
2018-01-15T03:54:29.740Z,-2.08
2018-01-15T03:57:41.256Z,-1.98
2018-01-15T04:00:52.471Z,-2.02
2018-01-15T04:04:04.187Z,-1.97
2018-01-15T04:07:14.348Z,-2.03
2018-01-15T04:10:28.714Z,-2.00
2018-01-15T04:13:39.778Z,-1.93
2018-01-15T04:16:50.053Z,-1.99
2018-01-15T04:19:59.692Z,-1.93
2018-01-15T04:23:11.788Z,-2.05
2018-01-15T04:26:52.372Z,-2.04
2018-01-15T04:34:09.842Z,-1.96
2018-01-15T04:37:20.255Z,-1.90
2018-01-15T04:40:29.838Z,-1.91
2018-01-15T04:43:41.957Z,-2.00
2018-01-15T04:46:54.077Z,-1.97
2018-01-15T04:50:00.319Z,-1.90
2018-01-15T04:53:08.705Z,-1.92
2018-01-15T04:56:23.073Z,-1.91
2018-01-15T04:59:34.422Z,-1.96
2018-01-15T05:06:09.040Z,-1.99
2018-01-15T05:09:20.704Z,-2.02
2018-01-15T05:12:30.979Z,-1.96
2018-01-15T05:15:43.758Z,-1.95
2018-01-15T05:19:10.953Z,-2.00
2018-01-15T05:22:27.886Z,-1.90
2018-01-15T05:25:39.694Z,-1.96
2018-01-15T05:29:00.605Z,-1.88
2018-01-15T05:32:13.990Z,-1.91
2018-01-15T05:35:25.299Z,-1.93
2018-01-15T05:38:35.805Z,-1.94
2018-01-15T05:41:45.247Z,-1.86
2018-01-15T05:44:55.773Z,-1.78
2018-01-15T05:48:07.426Z,-1.85
2018-01-15T05:51:16.907Z,-1.88
2018-01-15T05:54:28.058Z,-1.86
2018-01-15T05:57:39.111Z,-1.96
2018-01-15T06:00:48.221Z,-1.82
2018-01-15T06:03:57.041Z,-1.84
2018-01-15T06:07:06.649Z,-1.87
2018-01-15T06:10:18.784Z,-1.84
2018-01-15T06:13:28.203Z,-1.83
2018-01-15T06:16:41.616Z,-1.85
2018-01-15T06:19:52.424Z,-1.74
2018-01-15T06:23:03.401Z,-1.84
2018-01-15T06:26:15.931Z,-1.86
2018-01-15T06:29:25.941Z,-1.78
2018-01-15T06:32:36.603Z,-1.79
2018-01-15T06:35:49.536Z,-1.79
2018-01-15T06:38:59.280Z,-1.78
2018-01-15T06:42:11.222Z,-1.78
2018-01-15T06:45:24.297Z,-1.77
2018-01-15T06:48:35.047Z,-1.75
2018-01-15T06:51:46.410Z,-1.72
2018-01-15T06:54:58.694Z,-1.67
2018-01-15T06:58:08.583Z,-1.67
2018-01-15T07:01:19.729Z,-1.77
2018-01-15T07:04:33.044Z,-1.73
2018-01-15T07:07:45.896Z,-1.70
2018-01-15T07:11:00.394Z,-1.65
2018-01-15T07:14:12.667Z,-1.63
2018-01-15T07:17:22.644Z,-1.59
2018-01-15T07:20:34.874Z,-1.52
2018-01-15T07:23:47.460Z,-1.40
2018-01-15T07:26:59.951Z,-1.44
2018-01-15T07:30:12.169Z,-1.49
2018-01-15T07:33:24.886Z,-1.41
2018-01-15T07:36:34.543Z,-1.37
2018-01-15T07:39:44.891Z,-1.47
2018-01-15T07:42:54.221Z,-1.47
2018-01-15T07:46:05.642Z,-1.41
2018-01-15T07:49:14.913Z,-1.38
2018-01-15T07:52:25.383Z,-1.34
2018-01-15T07:55:38.158Z,-1.35
2018-01-15T07:58:49.478Z,-1.37
2018-01-15T08:02:01.240Z,-1.39
2018-01-15T08:05:13.468Z,-1.33
2018-01-15T08:08:20.056Z,-1.34
2018-01-15T08:11:30.371Z,-1.29
2018-01-15T08:14:45.728Z,-1.17
2018-01-15T08:17:58.270Z,-1.16
2018-01-15T08:21:10.144Z,-1.18
2018-01-15T08:24:19.657Z,-1.14
2018-01-15T08:27:31.807Z,-1.11
2018-01-15T08:30:43.152Z,-1.04
2018-01-15T08:33:59.523Z,-0.91
2018-01-15T08:37:11.245Z,-0.90
2018-01-15T08:40:28.702Z,-0.91
2018-01-15T08:43:43.929Z,-0.84
2018-01-15T08:46:53.871Z,-0.74
2018-01-15T08:50:19.320Z,-0.65
2018-01-15T08:53:30.918Z,-0.64
2018-01-15T08:56:46.179Z,-0.53
2018-01-15T08:59:59.541Z,-0.51
2018-01-15T09:03:11.306Z,-0.42
2018-01-15T09:06:22.604Z,-0.40
2018-01-15T09:09:33.193Z,-0.35
2018-01-15T09:12:43.318Z,-0.33
2018-01-15T09:15:53.089Z,-0.33
2018-01-15T09:19:06.598Z,-0.28
2018-01-15T09:22:16.522Z,-0.28
2018-01-15T09:25:28.068Z,-0.23
2018-01-15T09:28:39.161Z,-0.14
2018-01-15T09:31:52.585Z,-0.12
2018-01-15T09:35:07.565Z,-0.02
2018-01-15T09:38:20.198Z,-0.03
2018-01-15T09:41:29.698Z,-0.03
2018-01-15T09:44:45.092Z,0.03
2018-01-15T09:47:58.249Z,0.04
2018-01-15T09:51:10.542Z,0.05
2018-01-15T09:54:23.126Z,0.13
2018-01-15T09:57:35.332Z,0.19
2018-01-15T10:00:44.945Z,0.26
2018-01-15T10:03:54.282Z,0.23
2018-01-15T10:07:02.915Z,0.25
2018-01-15T10:10:15.078Z,0.32
2018-01-15T10:13:25.124Z,0.37
2018-01-15T10:16:38.206Z,0.44
2018-01-15T10:19:47.162Z,0.47
2018-01-15T10:23:00.064Z,0.56
2018-01-15T10:26:09.334Z,0.58
2018-01-15T10:29:19.651Z,0.57
2018-01-15T10:32:31.155Z,0.61
2018-01-15T10:35:43.984Z,0.68
2018-01-15T10:38:57.209Z,0.74
2018-01-15T10:42:10.684Z,0.75
2018-01-15T10:45:22.898Z,0.86
2018-01-15T10:48:37.202Z,0.91
2018-01-15T10:51:53.278Z,0.94
2018-01-15T10:55:02.752Z,0.92
2018-01-15T10:58:11.878Z,1.00
2018-01-15T11:01:25.718Z,1.06
2018-01-15T11:04:36.097Z,1.01
2018-01-15T11:07:45.915Z,1.06
2018-01-15T11:10:57.280Z,1.20
2018-01-15T11:14:09.318Z,1.16
2018-01-15T11:17:24.284Z,1.20
2018-01-15T11:20:33.770Z,1.26
2018-01-15T11:23:45.625Z,1.26
2018-01-15T11:27:12.261Z,1.25
2018-01-15T11:30:22.257Z,1.29
2018-01-15T11:33:34.996Z,1.27
2018-01-15T11:36:46.133Z,1.31
2018-01-15T11:40:02.084Z,1.36
2018-01-15T11:43:18.693Z,1.39
2018-01-15T11:46:29.595Z,1.40
2018-01-15T11:49:38.209Z,1.42
2018-01-15T11:52:49.665Z,1.48
2018-01-15T11:56:05.557Z,1.57
2018-01-15T12:02:46.591Z,1.57
2018-01-15T12:05:59.371Z,1.61
2018-01-15T12:09:12.494Z,1.66
2018-01-15T12:12:24.552Z,1.67
2018-01-15T12:15:34.407Z,1.70
2018-01-15T12:18:46.331Z,1.75
2018-01-15T12:21:57.262Z,1.75
2018-01-15T12:25:09.178Z,1.82
2018-01-15T12:28:19.157Z,1.85
2018-01-15T12:31:32.292Z,1.85
2018-01-15T12:34:42.812Z,1.89
2018-01-15T12:37:55.902Z,1.91
2018-01-15T12:41:08.288Z,1.94
2018-01-15T12:44:17.873Z,1.99
2018-01-15T12:47:30.101Z,1.98
2018-01-15T12:50:40.954Z,1.96
2018-01-15T12:53:52.056Z,2.03
2018-01-15T12:57:09.745Z,2.02
2018-01-15T13:00:20.373Z,2.03
2018-01-15T13:03:33.941Z,2.03
2018-01-15T13:06:56.705Z,2.14
2018-01-15T13:10:06.352Z,2.17
2018-01-15T13:13:19.463Z,2.22
2018-01-15T13:16:29.418Z,2.17
2018-01-15T13:19:40.094Z,2.22
2018-01-15T13:22:49.564Z,2.20
2018-01-15T13:25:59.703Z,2.21
2018-01-15T13:29:11.246Z,2.21
2018-01-15T13:32:21.041Z,2.21
2018-01-15T13:35:34.370Z,2.26
2018-01-15T13:38:52.065Z,2.25
2018-01-15T13:42:08.079Z,2.29
2018-01-15T13:45:20.537Z,2.34
2018-01-15T13:48:33.258Z,2.35
2018-01-15T13:51:44.861Z,2.33
2018-01-15T13:54:55.174Z,2.34
2018-01-15T13:58:23.535Z,2.41
2018-01-15T14:01:35.346Z,2.40
2018-01-15T14:04:49.470Z,2.40
2018-01-15T14:08:03.039Z,2.47
2018-01-15T14:11:13.085Z,2.44
2018-01-15T14:14:23.770Z,2.46
2018-01-15T14:17:34.306Z,2.49
2018-01-15T14:20:44.583Z,2.53
2018-01-15T14:23:54.286Z,2.52
2018-01-15T14:27:04.841Z,2.51
2018-01-15T14:30:14.109Z,2.51
2018-01-15T14:33:25.055Z,2.46
2018-01-15T14:36:39.194Z,2.48
2018-01-15T14:39:50.650Z,2.50
2018-01-15T14:43:01.851Z,2.59
2018-01-15T14:46:12.651Z,2.54
2018-01-15T14:49:24.458Z,2.48
2018-01-15T14:52:34.221Z,2.50
2018-01-15T14:55:52.254Z,2.55
2018-01-15T14:59:17.305Z,2.59
2018-01-15T15:02:30.964Z,2.51
2018-01-15T15:05:46.326Z,2.59
2018-01-15T15:08:55.174Z,2.58
2018-01-15T15:12:04.345Z,2.65
2018-01-15T15:15:12.521Z,2.59
2018-01-15T15:18:21.219Z,2.59
2018-01-15T15:21:36.340Z,2.61
2018-01-15T15:24:45.671Z,2.55
2018-01-15T15:28:03.160Z,2.60
2018-01-15T15:31:13.199Z,2.64
2018-01-15T15:34:27.918Z,2.60
2018-01-15T15:37:40.548Z,2.63
2018-01-15T15:40:47.735Z,2.65
2018-01-15T15:43:56.374Z,2.66
2018-01-15T15:47:05.106Z,2.63
2018-01-15T15:50:16.354Z,2.68
2018-01-15T15:53:27.884Z,2.73
2018-01-15T15:56:38.848Z,2.65
2018-01-15T15:59:49.434Z,2.65
2018-01-15T16:03:01.360Z,2.65
2018-01-15T16:06:13.139Z,2.67
2018-01-15T16:09:33.304Z,2.68
2018-01-15T16:12:44.435Z,2.68
2018-01-15T16:15:57.421Z,2.65
2018-01-15T16:19:06.430Z,2.72
2018-01-15T16:22:31.518Z,2.71
2018-01-15T16:25:43.943Z,2.71
2018-01-15T16:28:52.445Z,2.74
2018-01-15T16:32:03.328Z,2.75
2018-01-15T16:35:12.720Z,2.74
2018-01-15T16:38:22.554Z,2.80
2018-01-15T16:49:13.248Z,2.80
2018-01-15T16:52:52.391Z,2.83
2018-01-15T16:56:31.018Z,2.80
2018-01-15T16:59:57.243Z,2.80
2018-01-15T17:46:12.909Z,2.78
2018-01-15T17:53:09.890Z,2.82
2018-01-15T17:56:32.145Z,2.81
2018-01-15T18:00:11.513Z,2.87
2018-01-15T18:03:32.543Z,2.95
2018-01-15T18:07:04.169Z,2.90
2018-01-15T18:10:26.586Z,2.93
2018-01-15T18:14:02.455Z,2.92
2018-01-15T18:17:28.789Z,2.94
2018-01-15T18:20:56.206Z,2.96
2018-01-15T18:24:04.699Z,3.07
2018-01-15T18:27:15.512Z,3.00
2018-01-15T18:30:31.194Z,3.03
2018-01-15T18:33:52.996Z,3.14
2018-01-15T18:37:17.525Z,3.07
2018-01-15T18:40:40.820Z,3.09
2018-01-15T18:43:58.433Z,3.14
2018-01-15T18:50:54.538Z,3.13
2018-01-15T18:54:23.917Z,3.11
2018-01-15T18:57:41.608Z,3.09
2018-01-15T19:01:04.554Z,3.09
2018-01-15T19:04:39.163Z,3.08
2018-01-15T19:08:19.147Z,3.05
2018-01-15T19:11:54.478Z,3.02
2018-01-15T19:15:28.033Z,3.12
2018-01-15T19:18:54.987Z,3.04
2018-01-15T19:22:17.821Z,3.03
2018-01-15T19:25:34.840Z,3.08
2018-01-15T19:28:55.325Z,3.04
2018-01-15T19:32:13.842Z,3.13
2018-01-15T19:35:44.882Z,3.16
2018-01-15T19:39:05.971Z,3.09
2018-01-15T19:42:31.502Z,3.11
2018-01-15T19:45:55.998Z,3.12
2018-01-15T19:49:25.891Z,3.15
2018-01-15T19:53:16.141Z,3.14
2018-01-15T19:56:34.556Z,3.07
2018-01-15T20:00:19.888Z,3.13
2018-01-15T20:03:48.580Z,3.12
2018-01-15T20:07:38.095Z,3.13
2018-01-15T20:11:14.341Z,3.14
2018-01-15T20:14:38.045Z,3.15
2018-01-15T20:17:57.937Z,3.32
2018-01-15T20:21:12.523Z,3.33
2018-01-15T20:24:38.604Z,3.25
2018-01-15T20:27:50.658Z,3.18
2018-01-15T20:31:04.959Z,3.18
2018-01-15T20:34:23.580Z,3.31
2018-01-15T20:37:40.389Z,3.24
2018-01-15T20:40:50.428Z,3.24
2018-01-15T20:44:07.803Z,3.25
2018-01-15T20:47:29.449Z,3.33
2018-01-15T20:50:36.843Z,3.27
2018-01-15T20:53:44.777Z,3.27
2018-01-15T20:57:00.456Z,3.26
2018-01-15T21:00:12.899Z,3.33
2018-01-15T21:03:24.596Z,3.30
2018-01-15T21:06:33.345Z,3.28
2018-01-15T21:09:44.498Z,3.30
2018-01-15T21:12:53.455Z,3.27
2018-01-15T21:16:32.659Z,3.27
2018-01-15T21:20:09.240Z,3.35
2018-01-15T21:23:42.498Z,3.28
2018-01-15T21:27:12.483Z,3.25
2018-01-15T21:30:45.791Z,3.30
2018-01-15T21:34:20.137Z,3.32
2018-01-15T21:37:54.261Z,3.32
2018-01-15T21:41:27.778Z,3.40
2018-01-15T21:45:06.968Z,3.30
2018-01-15T21:48:33.163Z,3.34
2018-01-15T21:52:01.470Z,3.41
2018-01-15T21:55:30.336Z,3.40
2018-01-15T21:58:51.579Z,3.40
2018-01-15T22:02:03.041Z,3.44
2018-01-15T22:05:11.830Z,3.47
2018-01-15T22:08:23.694Z,3.33
2018-01-15T22:11:39.939Z,3.37
2018-01-15T22:14:54.535Z,3.36
2018-01-15T22:18:07.389Z,3.36
2018-01-15T22:21:18.981Z,3.43
2018-01-15T22:24:30.999Z,3.37
2018-01-15T22:27:42.726Z,3.38
2018-01-15T22:31:03.686Z,3.39
2018-01-15T22:34:16.951Z,3.40
2018-01-15T22:37:29.824Z,3.40
2018-01-15T22:40:40.652Z,3.46
2018-01-15T22:43:53.139Z,3.47
2018-01-15T22:47:02.313Z,3.33
2018-01-15T22:50:13.433Z,3.36
2018-01-15T22:53:24.569Z,3.32
2018-01-15T22:56:41.616Z,3.29
2018-01-15T22:59:51.474Z,3.35
2018-01-15T23:02:58.864Z,3.30
2018-01-15T23:06:10.701Z,3.36
2018-01-15T23:09:20.691Z,3.37
2018-01-15T23:12:34.239Z,3.35
2018-01-15T23:15:49.440Z,3.30
2018-01-15T23:18:59.117Z,3.24
2018-01-15T23:22:25.306Z,3.29
2018-01-15T23:25:41.968Z,3.26
2018-01-15T23:28:53.251Z,3.23
2018-01-15T23:32:03.797Z,3.29
2018-01-15T23:35:14.315Z,3.26
2018-01-15T23:38:24.954Z,3.32
2018-01-15T23:41:35.791Z,3.38
2018-01-15T23:44:46.526Z,3.41
2018-01-15T23:47:57.723Z,3.31
2018-01-15T23:51:26.568Z,3.26
2018-01-15T23:54:39.911Z,3.25
2018-01-15T23:57:51.631Z,3.25
